Time;durP1;ratioP1;P1;durP2;ratioP2;P2;SDS_P1;SDS_P2;PMS_P1;PMS_P2;Temp;Humidity;BMP_temperature;BMP_pressure;BME280_temperature;BME280_humidity;BME280_pressure;Samples;Min_cycle;Max_cycle;Signal;HPM_P1;HPM_P2
2022/03/04 00:00:57;;;;;;;;;57.50;45.00;;;;;12.43;64.08;101371.47;5059484;28;45465;-77
2022/03/04 00:03:22;;;;;;;;;57.75;43.75;;;;;12.44;64.03;101376.78;5056018;28;47442;-77
2022/03/04 00:05:47;;;;;;;;;55.50;44.00;;;;;12.44;63.93;101384.72;5054571;28;45905;-77
2022/03/04 00:08:13;;;;;;;;;56.00;44.50;;;;;12.40;64.18;101360.81;5056174;28;54689;-77
2022/03/04 00:10:38;;;;;;;;;55.50;44.50;;;;;12.41;63.99;101366.16;5055853;28;51675;-77
2022/03/04 00:13:04;;;;;;;;;60.75;47.50;;;;;12.40;64.33;101361.72;5038235;28;45654;-77
2022/03/04 00:15:29;;;;;;;;;59.00;44.75;;;;;12.43;64.16;101372.34;5056530;28;45517;-77
2022/03/04 00:17:55;;;;;;;;;58.75;45.25;;;;;12.49;64.18;101374.19;5054519;28;47223;-77
2022/03/04 00:20:20;;;;;;;;;59.00;43.25;;;;;12.45;64.21;101364.41;5055503;28;45285;-77
2022/03/04 00:22:46;;;;;;;;;58.25;44.50;;;;;12.50;64.07;101368.91;5062108;28;46046;-77
2022/03/04 00:25:12;;;;;;;;;52.50;44.25;;;;;12.48;64.15;101368.00;5055549;28;45564;-77
2022/03/04 00:27:37;;;;;;;;;56.50;44.25;;;;;12.52;64.44;101372.47;5056300;28;45323;-77
2022/03/04 00:30:04;;;;;;;;;57.75;44.00;;;;;12.51;64.33;101361.84;5053989;28;57494;-77
2022/03/04 00:32:29;;;;;;;;;56.50;43.50;;;;;12.54;64.16;101368.06;5053884;28;46772;-78
2022/03/04 00:34:54;;;;;;;;;60.50;45.75;;;;;12.54;64.41;101373.38;5055917;28;56545;-79
2022/03/04 00:37:20;;;;;;;;;50.25;41.50;;;;;12.57;64.24;101375.19;5055782;28;55723;-76
2022/03/04 00:39:45;;;;;;;;;56.75;45.25;;;;;12.56;64.52;101382.22;5056110;28;45814;-77
2022/03/04 00:42:11;;;;;;;;;59.25;43.75;;;;;12.55;64.25;101372.50;5060893;28;47196;-77
2022/03/04 00:44:36;;;;;;;;;55.00;44.25;;;;;12.58;64.26;101375.19;5055632;28;45207;-76
2022/03/04 00:47:02;;;;;;;;;58.25;45.00;;;;;12.56;64.41;101374.25;5055326;28;45583;-77
2022/03/04 00:49:27;;;;;;;;;58.25;45.50;;;;;12.58;64.33;101371.66;5056105;28;45440;-77
2022/03/04 00:51:52;;;;;;;;;52.25;43.50;;;;;12.57;64.25;101368.13;5055613;28;46617;-77
2022/03/04 00:54:18;;;;;;;;;56.25;44.00;;;;;12.55;64.31;101359.25;5057691;28;45481;-78
2022/03/04 00:56:43;;;;;;;;;59.25;46.75;;;;;12.55;64.39;101367.19;5055703;28;54646;-78
2022/03/04 00:59:09;;;;;;;;;57.00;44.75;;;;;12.55;64.40;101375.13;5055309;28;45289;-77
2022/03/04 01:01:34;;;;;;;;;64.75;47.50;;;;;12.58;64.66;101376.94;5055450;28;46507;-78
2022/03/04 01:03:59;;;;;;;;;62.25;50.00;;;;;12.56;64.60;101374.25;5054773;28;59347;-79
2022/03/04 01:06:25;;;;;;;;;59.25;47.75;;;;;12.56;64.68;101374.25;5055569;28;55828;-78
2022/03/04 01:08:50;;;;;;;;;60.50;48.25;;;;;12.58;64.55;101379.59;5055459;28;45546;-77
2022/03/04 01:11:16;;;;;;;;;60.25;46.25;;;;;12.52;64.52;101367.19;5054550;28;60831;-77
2022/03/04 01:13:41;;;;;;;;;59.00;46.75;;;;;12.56;64.23;101376.91;5055168;28;61131;-77
2022/03/04 01:16:06;;;;;;;;;54.50;46.00;;;;;12.56;64.27;101376.91;5053436;28;56841;-77
2022/03/04 01:18:32;;;;;;;;;59.00;46.25;;;;;12.54;64.49;101386.63;5055374;28;53759;-77
2022/03/04 01:20:57;;;;;;;;;56.50;43.25;;;;;12.54;64.59;101370.72;5054540;28;45343;-77
2022/03/04 01:23:23;;;;;;;;;55.00;40.50;;;;;12.53;64.43;101374.25;5054372;28;63243;-77
2022/03/04 01:25:52;;;;;;;;;51.00;43.00;;;;;12.51;64.40;101375.97;5062831;28;56304;-77
2022/03/04 01:28:18;;;;;;;;;52.50;43.00;;;;;12.45;64.20;101375.00;5055110;28;45474;-78
2022/03/04 01:30:43;;;;;;;;;54.00;38.00;;;;;12.48;64.34;101375.94;5055350;28;47456;-78
2022/03/04 01:33:09;;;;;;;;;50.50;40.75;;;;;12.47;64.32;101373.28;5054680;28;59919;-77
2022/03/04 01:35:36;;;;;;;;;52.25;38.50;;;;;12.45;64.39;101381.19;5054675;28;56602;-77
2022/03/04 01:38:01;;;;;;;;;45.75;40.00;;;;;12.44;64.55;101384.72;5054147;28;45568;-78
2022/03/04 01:40:27;;;;;;;;;48.25;39.00;;;;;12.42;64.47;101383.81;5055279;28;46654;-77
2022/03/04 01:42:52;;;;;;;;;51.75;40.75;;;;;12.42;64.52;101377.63;5055293;28;45421;-76
2022/03/04 01:45:18;;;;;;;;;56.50;39.75;;;;;12.43;64.41;101379.41;5062868;28;45582;-77
2022/03/04 01:47:43;;;;;;;;;53.75;40.00;;;;;12.43;64.44;101371.47;5054906;28;45792;-77
2022/03/04 01:50:09;;;;;;;;;51.50;40.75;;;;;12.44;64.32;101375.88;5054856;28;54884;-76
2022/03/04 01:52:34;;;;;;;;;52.75;39.00;;;;;12.44;64.44;101370.59;5052855;28;45823;-77
2022/03/04 01:55:00;;;;;;;;;51.00;39.75;;;;;12.46;64.51;101363.53;5054797;28;55529;-76
2022/03/04 01:57:25;;;;;;;;;52.75;41.75;;;;;12.45;64.42;101373.25;5036447;28;45324;-77
2022/03/04 01:59:50;;;;;;;;;51.25;40.00;;;;;12.47;64.30;101357.41;5052638;28;64278;-78
2022/03/04 02:02:16;;;;;;;;;55.75;41.50;;;;;12.48;64.22;101357.41;5057732;28;55196;-77
2022/03/04 02:04:42;;;;;;;;;53.75;41.00;;;;;12.47;64.32;101352.97;5057811;28;54264;-77
2022/03/04 02:07:08;;;;;;;;;56.25;41.25;;;;;12.47;64.26;101352.97;5061875;28;45513;-76
2022/03/04 02:09:33;;;;;;;;;56.75;43.50;;;;;12.44;63.96;101347.63;5057670;28;61933;-77
2022/03/04 02:12:00;;;;;;;;;54.00;40.50;;;;;12.43;64.21;101358.22;5056292;28;45541;-77
2022/03/04 02:14:25;;;;;;;;;51.25;42.00;;;;;12.39;63.98;101356.41;5058561;28;45467;-77
2022/03/04 02:16:52;;;;;;;;;55.00;41.50;;;;;12.33;64.27;101343.97;5058101;28;46998;-77
2022/03/04 02:19:18;;;;;;;;;49.50;41.00;;;;;12.35;64.29;101357.22;5056889;28;46645;-77
2022/03/04 02:21:50;;;;;;;;;52.00;39.75;;;;;12.28;64.32;101350.97;5056958;28;45431;-77
2022/03/04 02:24:17;;;;;;;;;53.50;41.25;;;;;12.28;64.22;101358.91;5057478;28;45458;-77
2022/03/04 02:26:42;;;;;;;;;52.25;38.75;;;;;12.24;64.33;101359.75;5062369;28;45459;-77
2022/03/04 02:29:08;;;;;;;;;47.25;40.00;;;;;12.17;64.19;101363.19;5057404;28;45565;-78
2022/03/04 02:31:33;;;;;;;;;51.50;40.75;;;;;12.13;64.36;101353.44;5057925;28;45559;-78
2022/03/04 02:33:59;;;;;;;;;51.25;37.25;;;;;12.07;64.42;101355.13;5057810;28;49166;-77
2022/03/04 02:36:24;;;;;;;;;45.25;38.00;;;;;12.04;64.30;101346.28;5057972;28;45170;-78
2022/03/04 02:38:50;;;;;;;;;43.75;37.75;;;;;12.01;64.34;101348.88;5056943;28;62727;-76
2022/03/04 02:41:16;;;;;;;;;50.00;39.50;;;;;11.86;64.26;101332.78;5056680;28;57553;-78
2022/03/04 02:43:41;;;;;;;;;44.25;38.75;;;;;11.88;64.56;101365.44;5057990;28;45480;-77
2022/03/04 02:46:06;;;;;;;;;51.75;40.00;;;;;11.83;64.58;101365.38;5057514;28;54616;-77
2022/03/04 02:48:32;;;;;;;;;39.50;35.00;;;;;11.80;64.42;101357.34;5062849;28;60000;-77
2022/03/04 02:50:57;;;;;;;;;52.25;41.00;;;;;11.78;64.57;101354.69;5056896;28;56959;-77
2022/03/04 02:53:22;;;;;;;;;53.75;41.50;;;;;11.75;64.66;101353.75;5057592;28;45331;-76
2022/03/04 02:55:48;;;;;;;;;49.00;40.50;;;;;11.70;64.84;101348.41;5056809;28;48612;-77
2022/03/04 02:58:13;;;;;;;;;56.00;42.00;;;;;11.72;64.77;101359.03;5056514;28;65390;-78
2022/03/04 03:00:39;;;;;;;;;52.50;40.75;;;;;11.71;65.07;101362.50;5056342;28;62592;-77
2022/03/04 03:03:05;;;;;;;;;52.00;42.00;;;;;11.68;64.91;101362.47;5057545;28;45456;-77
2022/03/04 03:05:30;;;;;;;;;57.75;44.25;;;;;11.68;64.91;101367.78;5057311;28;45339;-77
2022/03/04 03:07:55;;;;;;;;;52.25;39.00;;;;;11.69;64.90;101362.50;5060230;28;53232;-77
2022/03/04 03:10:21;;;;;;;;;56.25;42.75;;;;;11.69;64.75;101356.31;5059953;28;62292;-77
2022/03/04 03:12:46;;;;;;;;;59.00;44.25;;;;;11.68;64.86;101360.72;5056644;28;54294;-77
2022/03/04 03:15:12;;;;;;;;;57.50;42.00;;;;;11.68;64.99;101362.47;5056009;28;50376;-77
2022/03/04 03:17:37;;;;;;;;;54.50;42.75;;;;;11.65;64.85;101355.38;5056621;28;46398;-78
2022/03/04 03:20:03;;;;;;;;;54.25;40.50;;;;;11.64;65.26;101350.97;5056615;28;57763;-79
2022/03/04 03:22:29;;;;;;;;;56.50;44.75;;;;;11.70;65.05;101361.63;5057256;28;45450;-78
2022/03/04 03:24:54;;;;;;;;;57.00;46.00;;;;;11.67;65.32;101358.06;5057129;28;45457;-77
2022/03/04 03:27:20;;;;;;;;;57.25;43.50;;;;;11.70;65.17;101366.91;5056867;28;47398;-76
2022/03/04 03:29:45;;;;;;;;;57.00;43.25;;;;;11.70;65.19;101356.34;5046579;28;45541;-76
2022/03/04 03:32:11;;;;;;;;;60.00;45.50;;;;;11.68;65.07;101358.06;5056915;28;49608;-76
2022/03/04 03:34:36;;;;;;;;;57.75;42.25;;;;;11.71;65.03;101359.88;5039005;28;45214;-78
2022/03/04 03:37:02;;;;;;;;;56.50;42.00;;;;;11.71;65.37;101367.81;5056983;28;47915;-78
2022/03/04 03:39:27;;;;;;;;;57.50;44.50;;;;;11.70;65.28;101364.28;5055272;28;45427;-77
2022/03/04 03:41:53;;;;;;;;;56.25;44.50;;;;;11.70;65.03;101366.91;5039217;28;45512;-78
2022/03/04 03:44:18;;;;;;;;;55.75;44.25;;;;;11.74;65.11;101373.16;5056662;28;53857;-79
2022/03/04 03:46:43;;;;;;;;;57.75;44.50;;;;;11.75;65.15;101374.91;5056521;28;47536;-77
2022/03/04 03:49:09;;;;;;;;;51.50;43.00;;;;;11.76;65.15;101374.06;5056896;28;48507;-76
2022/03/04 03:51:34;;;;;;;;;51.25;41.00;;;;;11.77;65.21;101371.44;5056347;28;45457;-77
2022/03/04 03:54:00;;;;;;;;;54.75;38.75;;;;;11.76;65.10;101364.34;5056087;28;54647;-76
2022/03/04 03:56:25;;;;;;;;;50.75;40.75;;;;;11.79;65.27;101375.00;5056852;28;46115;-77
2022/03/04 03:58:51;;;;;;;;;56.50;44.25;;;;;11.81;65.29;101380.31;5056402;28;45841;-77
2022/03/04 04:01:16;;;;;;;;;55.50;44.25;;;;;11.83;65.00;101381.25;5057204;28;45476;-77
2022/03/04 04:03:42;;;;;;;;;57.50;47.00;;;;;11.84;64.98;101375.09;5056049;28;49188;-77
2022/03/04 04:06:07;;;;;;;;;53.75;43.75;;;;;11.87;65.02;101376.88;5056553;28;46373;-77
2022/03/04 04:08:34;;;;;;;;;55.50;43.50;;;;;11.88;65.09;101373.38;5056347;28;46616;-77
2022/03/04 04:10:59;;;;;;;;;58.00;44.25;;;;;11.88;64.99;101371.63;5061473;28;57281;-77
2022/03/04 04:13:24;;;;;;;;;49.50;39.75;;;;;11.91;65.15;101374.31;5055216;28;45702;-77
2022/03/04 04:15:50;;;;;;;;;57.50;45.00;;;;;11.86;65.14;101361.88;5056492;28;46426;-78
2022/03/04 04:18:15;;;;;;;;;55.50;41.00;;;;;11.91;65.10;101374.31;5055409;28;45553;-77
2022/03/04 04:20:41;;;;;;;;;49.50;39.75;;;;;11.92;65.20;101373.44;5057011;28;45814;-77
2022/03/04 04:23:06;;;;;;;;;57.00;42.75;;;;;11.93;65.10;101367.31;5054945;28;54168;-77
2022/03/04 04:25:31;;;;;;;;;55.25;44.75;;;;;11.95;65.03;101372.59;5056016;28;60177;-78
2022/03/04 04:27:57;;;;;;;;;58.25;45.25;;;;;11.96;65.07;101366.44;5056348;28;45434;-77
2022/03/04 04:30:22;;;;;;;;;59.75;45.75;;;;;11.95;64.94;101373.50;5057240;28;45938;-77
2022/03/04 04:32:48;;;;;;;;;52.50;43.00;;;;;11.98;64.90;101370.88;5055986;28;45561;-78
2022/03/04 04:35:13;;;;;;;;;54.00;41.50;;;;;11.94;64.76;101366.44;5055667;28;50603;-77
2022/03/04 04:37:39;;;;;;;;;58.00;44.25;;;;;12.00;64.96;101378.84;5053890;28;63626;-77
2022/03/04 04:40:05;;;;;;;;;55.50;44.75;;;;;12.00;65.00;101387.69;5056209;28;45629;-77
2022/03/04 04:42:30;;;;;;;;;57.25;46.25;;;;;11.96;65.02;101379.69;5055696;28;45584;-77
2022/03/04 04:44:56;;;;;;;;;60.75;47.00;;;;;12.01;65.04;101392.09;5054887;28;45319;-77
2022/03/04 04:47:21;;;;;;;;;59.00;45.25;;;;;12.01;65.12;101386.81;5054383;28;45445;-77
2022/03/04 04:49:46;;;;;;;;;56.25;45.75;;;;;12.00;65.12;101392.97;5054312;28;54320;-78
2022/03/04 04:52:12;;;;;;;;;59.75;45.25;;;;;12.01;65.21;101393.84;5059767;28;54972;-76
2022/03/04 04:54:37;;;;;;;;;57.75;43.00;;;;;12.02;64.91;101396.53;5054867;28;47422;-77
2022/03/04 04:57:03;;;;;;;;;64.75;47.25;;;;;12.02;65.10;101392.97;5053986;28;54923;-77
2022/03/04 04:59:28;;;;;;;;;64.00;47.75;;;;;12.03;65.18;101392.09;5054235;28;45457;-77
2022/03/04 05:01:54;;;;;;;;;59.25;45.00;;;;;12.03;65.14;101393.00;5054517;28;45695;-77
2022/03/04 05:04:19;;;;;;;;;59.75;44.50;;;;;12.04;65.05;101393.91;5054856;28;63950;-76
2022/03/04 05:06:45;;;;;;;;;60.50;48.75;;;;;12.02;65.15;101383.28;5053522;28;59355;-77
2022/03/04 05:09:10;;;;;;;;;63.75;46.25;;;;;12.04;65.17;101388.63;5054189;28;56536;-76
2022/03/04 05:11:35;;;;;;;;;59.75;46.50;;;;;12.06;65.08;101397.47;5054753;28;45467;-76
2022/03/04 05:14:01;;;;;;;;;62.75;49.00;;;;;12.06;65.40;101394.81;5060142;28;47323;-77
2022/03/04 05:16:26;;;;;;;;;63.00;46.75;;;;;12.07;65.36;101399.22;5055430;28;45318;-77
2022/03/04 05:18:52;;;;;;;;;63.50;47.75;;;;;12.09;65.08;101404.53;5055120;28;45347;-76
2022/03/04 05:21:17;;;;;;;;;62.75;46.50;;;;;12.11;65.16;101409.00;5055354;28;54086;-78
2022/03/04 05:24:01;;;;;;;;;64.00;50.75;;;;;12.11;65.24;101406.34;5055572;28;45524;-77
2022/03/04 05:26:27;;;;;;;;;63.25;49.75;;;;;12.11;65.44;101406.34;5049500;28;45533;-77
2022/03/04 05:28:53;;;;;;;;;64.50;48.00;;;;;12.06;65.02;101395.69;5054809;28;45592;-77
2022/03/04 05:31:18;;;;;;;;;61.50;47.25;;;;;12.13;65.09;101404.59;5054248;28;45657;-77
2022/03/04 05:33:44;;;;;;;;;60.50;46.25;;;;;12.13;65.22;101411.66;5060698;28;66413;-76
2022/03/04 05:36:09;;;;;;;;;63.25;47.00;;;;;12.14;65.17;101408.16;5055602;28;45332;-77
2022/03/04 05:38:34;;;;;;;;;64.25;48.75;;;;;12.13;65.20;101415.19;5057198;28;60577;-77
2022/03/04 05:41:00;;;;;;;;;62.00;46.00;;;;;12.13;65.39;101409.03;5058001;28;50941;-78
2022/03/04 05:43:25;;;;;;;;;60.50;46.25;;;;;12.13;65.14;101404.59;5058372;28;46238;-76
2022/03/04 05:45:51;;;;;;;;;59.00;46.75;;;;;12.12;65.38;101413.44;5056185;28;53271;-76
2022/03/04 05:48:17;;;;;;;;;60.25;47.00;;;;;12.15;65.27;101405.53;5058661;28;45456;-77
2022/03/04 05:50:42;;;;;;;;;57.00;45.50;;;;;12.14;65.30;101405.50;5058829;28;45390;-76
2022/03/04 05:53:08;;;;;;;;;55.50;44.50;;;;;12.16;65.26;101417.03;5058470;28;47260;-77
2022/03/04 05:55:34;;;;;;;;;63.00;46.50;;;;;12.16;65.41;101415.25;5065445;28;45411;-77
2022/03/04 05:57:59;;;;;;;;;62.00;47.75;;;;;12.17;65.36;101417.03;5058188;28;45501;-76
2022/03/04 06:00:26;;;;;;;;;60.50;48.25;;;;;12.16;65.32;101414.38;5057233;28;45605;-77
2022/03/04 06:02:51;;;;;;;;;60.75;46.25;;;;;12.15;65.62;101408.19;5057361;28;45961;-77
2022/03/04 06:05:17;;;;;;;;;65.75;50.00;;;;;12.12;65.48;101409.91;5057478;28;45457;-77
2022/03/04 06:07:42;;;;;;;;;58.75;46.00;;;;;12.10;65.44;101401.06;5059020;28;45217;-78
2022/03/04 06:10:08;;;;;;;;;59.00;44.50;;;;;12.15;65.56;101415.25;5055918;28;57415;-78
2022/03/04 06:12:33;;;;;;;;;60.75;48.00;;;;;12.13;65.43;101416.97;5058004;28;46542;-77
2022/03/04 06:14:58;;;;;;;;;59.25;46.75;;;;;12.15;65.54;101425.84;5062996;28;45393;-77
2022/03/04 06:17:24;;;;;;;;;62.25;48.00;;;;;12.15;65.56;101426.72;5057989;28;52860;-77
2022/03/04 06:19:49;;;;;;;;;61.75;47.75;;;;;12.15;65.72;101423.19;5057643;28;55968;-78
2022/03/04 06:22:18;;;;;;;;;61.75;47.75;;;;;12.14;65.81;101424.03;5057348;28;59235;-77
2022/03/04 06:24:43;;;;;;;;;61.50;48.50;;;;;12.18;65.74;101433.78;5057935;28;46082;-77
2022/03/04 06:27:09;;;;;;;;;61.50;47.00;;;;;12.17;65.66;101432.03;5057822;28;45363;-76
2022/03/04 06:29:34;;;;;;;;;62.75;47.50;;;;;12.18;65.79;101426.75;5057346;28;57834;-76
2022/03/04 06:32:00;;;;;;;;;59.00;45.75;;;;;12.17;65.88;101438.22;5057612;28;47500;-77
2022/03/04 06:34:25;;;;;;;;;65.00;49.50;;;;;12.17;66.09;101440.84;5057623;28;45533;-76
2022/03/04 06:36:51;;;;;;;;;63.25;47.00;;;;;12.19;65.91;101444.41;5061117;28;54108;-78
2022/03/04 06:39:16;;;;;;;;;65.00;50.75;;;;;12.18;65.75;101450.56;5056985;28;54352;-76
2022/03/04 06:41:41;;;;;;;;;57.25;47.00;;;;;12.18;65.74;101452.31;5039708;28;55002;-77
2022/03/04 06:44:07;;;;;;;;;64.00;49.25;;;;;12.15;65.63;101450.53;5057975;28;45377;-77
2022/03/04 06:46:32;;;;;;;;;59.50;46.25;;;;;12.19;65.57;101468.22;5056563;28;55753;-77
2022/03/04 06:48:58;;;;;;;;;62.75;49.50;;;;;12.20;65.44;101464.75;5057726;28;48926;-76
2022/03/04 06:51:23;;;;;;;;;65.75;49.25;;;;;12.22;65.35;101465.63;5055959;28;46189;-77
2022/03/04 06:53:48;;;;;;;;;61.75;50.75;;;;;12.23;65.50;101467.41;5056376;28;59906;-78
2022/03/04 06:56:17;;;;;;;;;62.25;47.75;;;;;12.26;65.27;101477.19;5063787;28;58552;-76
2022/03/04 06:58:42;;;;;;;;;58.75;45.25;;;;;12.28;65.55;101484.25;5054910;28;45548;-77
2022/03/04 07:01:08;;;;;;;;;66.00;48.25;;;;;12.27;65.58;101471.00;5057115;28;46507;-77
2022/03/04 07:03:33;;;;;;;;;63.50;47.50;;;;;12.24;65.51;101474.47;5054058;28;45398;-77
2022/03/04 07:05:59;;;;;;;;;59.25;47.00;;;;;12.30;65.44;101482.53;5057434;28;45320;-79
2022/03/04 07:08:24;;;;;;;;;63.50;48.00;;;;;12.24;65.97;101484.19;5051294;28;52947;-78
2022/03/04 07:10:49;;;;;;;;;68.75;51.50;;;;;12.11;66.65;101483.13;5054219;28;64453;-76
2022/03/04 07:13:15;;;;;;;;;62.25;46.75;;;;;12.00;67.10;101490.00;5057311;28;45502;-77
2022/03/04 07:15:40;;;;;;;;;51.50;42.75;;;;;11.84;66.94;101480.94;5057315;28;46626;-75
2022/03/04 07:18:06;;;;;;;;;61.75;49.00;;;;;11.78;67.35;101499.34;5046959;28;45506;-77
2022/03/04 07:20:32;;;;;;;;;61.50;49.00;;;;;11.61;67.75;101496.41;5054349;28;46639;-77
2022/03/04 07:22:57;;;;;;;;;61.25;46.25;;;;;11.57;68.00;101501.59;5054377;28;46484;-76
2022/03/04 07:25:22;;;;;;;;;59.75;46.50;;;;;11.40;68.46;101496.00;5054524;28;45375;-78
2022/03/04 07:27:48;;;;;;;;;66.25;51.00;;;;;11.42;67.68;101510.16;5054075;28;52056;-78
2022/03/04 07:30:14;;;;;;;;;67.50;51.00;;;;;11.47;67.30;101504.09;5054874;28;46529;-77
2022/03/04 07:32:40;;;;;;;;;63.50;48.25;;;;;11.59;67.22;101505.16;5056348;28;45448;-77
2022/03/04 07:35:07;;;;;;;;;69.25;49.75;;;;;11.68;67.14;101510.63;5054694;28;45545;-78
2022/03/04 07:37:34;;;;;;;;;71.25;51.50;;;;;11.74;66.90;101511.59;5055438;28;45241;-77
2022/03/04 07:39:59;;;;;;;;;60.75;47.75;;;;;11.84;67.11;101517.09;5054250;28;47676;-77
2022/03/04 07:42:25;;;;;;;;;63.25;49.00;;;;;11.90;66.50;101514.53;5056489;28;59164;-78
2022/03/04 07:44:50;;;;;;;;;66.00;50.75;;;;;11.96;66.44;101517.28;5057193;28;45306;-78
2022/03/04 07:47:15;;;;;;;;;66.25;50.00;;;;;12.00;66.39;101520.03;5051340;28;55340;-77
2022/03/04 07:49:44;;;;;;;;;64.75;50.50;;;;;12.03;66.27;101513.88;5054307;28;64801;-77
2022/03/04 07:52:09;;;;;;;;;61.00;49.25;;;;;12.08;66.19;101514.84;5191121;22;45784;-77
2022/03/04 07:54:35;;;;;;;;;67.25;50.25;;;;;12.16;66.03;101520.25;5075760;28;45496;-78
2022/03/04 07:57:00;;;;;;;;;64.50;48.00;;;;;12.23;65.92;101522.13;5068475;28;45460;-77
2022/03/04 07:59:26;;;;;;;;;69.00;50.50;;;;;12.29;65.87;101522.22;5074918;28;63223;-77
2022/03/04 08:01:51;;;;;;;;;66.25;49.75;;;;;12.35;65.67;101519.66;5075155;28;62094;-77
2022/03/04 08:04:16;;;;;;;;;69.75;52.75;;;;;12.38;65.60;101513.53;5076439;28;53366;-77
2022/03/04 08:06:42;;;;;;;;;61.75;49.25;;;;;12.48;65.25;101518.09;5076224;28;45673;-77
2022/03/04 08:09:07;;;;;;;;;68.25;52.50;;;;;12.53;65.55;101516.41;5075362;28;47387;-77
2022/03/04 08:11:33;;;;;;;;;71.00;52.25;;;;;12.57;65.33;101527.06;5076424;28;60373;-78
2022/03/04 08:13:58;;;;;;;;;65.50;52.25;;;;;12.65;65.28;101526.28;5076873;28;45503;-77
2022/03/04 08:16:29;;;;;;;;;62.75;50.00;;;;;12.69;65.09;101522.81;5077672;28;45303;-77
2022/03/04 08:18:57;;;;;;;;;70.25;53.50;;;;;12.74;65.08;101526.41;5076623;28;47562;-77
2022/03/04 08:21:23;;;;;;;;;64.00;51.25;;;;;12.81;64.99;101538.84;5076283;27;45459;-77
2022/03/04 08:23:49;;;;;;;;;68.50;50.25;;;;;12.82;64.79;101527.38;5076095;28;45399;-77
2022/03/04 08:26:14;;;;;;;;;70.00;52.25;;;;;12.91;64.90;101537.22;5069266;28;58345;-77
2022/03/04 08:28:39;;;;;;;;;68.50;51.00;;;;;12.93;64.72;101539.00;5075735;28;58235;-74
2022/03/04 08:31:10;;;;;;;;;63.25;51.00;;;;;12.98;64.74;101549.66;5076883;27;55047;-76
2022/03/04 08:33:40;;;;;;;;;69.00;53.50;;;;;13.02;64.40;101549.72;5072640;28;45239;-76
2022/03/04 08:36:05;;;;;;;;;70.00;50.50;;;;;13.04;64.42;101547.97;5075402;28;45267;-76
2022/03/04 08:38:31;;;;;;;;;68.00;52.00;;;;;13.10;64.49;101542.78;5076178;28;54316;-76
2022/03/04 08:40:56;;;;;;;;;70.50;52.25;;;;;13.13;63.98;101543.66;5075260;28;45350;-77
2022/03/04 08:43:22;;;;;;;;;69.00;51.00;;;;;13.23;64.50;101548.25;5075618;28;45727;-76
2022/03/04 08:45:47;;;;;;;;;70.50;52.00;;;;;13.29;64.03;101540.34;5074255;28;54857;-77
2022/03/04 08:48:13;;;;;;;;;71.00;54.25;;;;;13.34;64.30;101549.25;5074919;28;53481;-75
2022/03/04 08:50:38;;;;;;;;;73.25;54.25;;;;;13.38;64.12;101552.84;5074550;28;45485;-75
2022/03/04 08:53:03;;;;;;;;;73.50;54.50;;;;;13.43;63.99;101551.13;5074620;28;56850;-75
2022/03/04 08:55:30;;;;;;;;;68.75;52.25;;;;;13.47;63.84;101553.81;5074933;28;55202;-74
2022/03/04 08:57:55;;;;;;;;;69.50;53.75;;;;;13.49;63.81;101546.78;5075338;28;47217;-75
2022/03/04 09:00:21;;;;;;;;;65.75;52.00;;;;;13.59;63.60;101542.44;5071621;28;45187;-75
2022/03/04 09:02:46;;;;;;;;;66.25;51.50;;;;;13.65;63.68;101550.47;5076294;28;45465;-75
2022/03/04 09:05:12;;;;;;;;;67.50;51.75;;;;;13.65;63.50;101542.50;5075252;28;45632;-74
2022/03/04 09:07:37;;;;;;;;;67.00;51.75;;;;;13.76;63.38;101558.53;5074786;28;47305;-74
2022/03/04 09:10:06;;;;;;;;;73.50;54.00;;;;;13.81;63.40;101556.81;5077724;28;45539;-75
2022/03/04 09:12:32;;;;;;;;;69.25;53.75;;;;;13.85;63.02;101548.91;5079242;28;45505;-75
2022/03/04 09:14:57;;;;;;;;;64.75;49.00;;;;;13.93;62.95;101556.03;5078246;28;51154;-74
2022/03/04 09:17:23;;;;;;;;;72.00;53.75;;;;;13.95;62.72;101552.50;5078844;28;49336;-74
2022/03/04 09:19:48;;;;;;;;;65.00;49.25;;;;;13.95;63.02;101555.16;5079494;28;45449;-74
2022/03/04 09:22:14;;;;;;;;;69.00;52.25;;;;;14.00;63.03;101556.09;5079055;28;51645;-74
2022/03/04 09:24:39;;;;;;;;;68.50;49.50;;;;;14.02;62.76;101562.31;5079096;28;45705;-74
2022/03/04 09:27:04;;;;;;;;;68.00;50.50;;;;;14.05;62.99;101554.34;5078714;28;64532;-74
2022/03/04 09:29:30;;;;;;;;;70.75;52.00;;;;;14.09;62.76;101553.50;5078978;28;45169;-75
2022/03/04 09:31:55;;;;;;;;;66.25;53.25;;;;;14.14;62.41;101549.13;5074152;28;45515;-74
2022/03/04 09:34:21;;;;;;;;;66.00;51.00;;;;;14.18;62.25;101546.50;5078993;28;54811;-75
2022/03/04 09:36:46;;;;;;;;;65.25;51.75;;;;;14.21;62.08;101550.06;5078287;28;63082;-74
2022/03/04 09:39:11;;;;;;;;;67.50;50.75;;;;;14.25;62.47;101553.63;5079245;28;45405;-75
2022/03/04 09:41:40;;;;;;;;;66.50;48.50;;;;;14.29;61.92;101559.00;5078391;28;56299;-75
2022/03/04 09:44:05;;;;;;;;;65.50;50.00;;;;;14.31;61.82;101551.03;5079065;28;45476;-74
2022/03/04 09:46:31;;;;;;;;;71.25;53.75;;;;;14.30;61.96;101552.78;5060468;28;65822;-74
2022/03/04 09:48:56;;;;;;;;;70.25;52.75;;;;;14.32;61.91;101558.09;5042887;28;45423;-74
2022/03/04 09:51:22;;;;;;;;;66.50;50.75;;;;;14.30;61.99;101554.56;5077838;28;45621;-74
2022/03/04 09:53:47;;;;;;;;;68.00;51.75;;;;;14.33;61.77;101559.91;5078616;28;45652;-75
2022/03/04 09:56:13;;;;;;;;;69.75;53.50;;;;;14.32;61.27;101560.75;5079025;28;46289;-74
2022/03/04 09:58:38;;;;;;;;;69.50;53.25;;;;;14.35;61.32;101560.78;5078335;28;45515;-74
2022/03/04 10:01:11;;;;;;;;;68.50;52.75;;;;;14.34;61.47;101557.25;5078247;28;57606;-74
2022/03/04 10:03:39;;;;;;;;;68.50;51.25;;;;;14.42;61.51;101562.59;5079104;28;45674;-74
2022/03/04 10:06:05;;;;;;;;;70.00;54.50;;;;;14.42;61.46;101544.91;5078163;28;47546;-75
2022/03/04 10:08:36;;;;;;;;;67.50;51.75;;;;;14.48;61.62;101553.81;5078623;28;45414;-75
2022/03/04 10:11:02;;;;;;;;;71.00;54.00;;;;;14.47;60.74;101560.91;5078032;28;45456;-75
2022/03/04 10:13:50;;;;;;;;;72.75;55.00;;;;;14.48;60.86;101551.16;5078853;28;45584;-75
2022/03/04 10:16:55;;;;;;;;;76.25;55.25;;;;;14.56;61.04;101557.44;5078203;28;46859;-75
2022/03/04 10:19:20;;;;;;;;;67.25;51.25;;;;;14.60;60.81;101549.50;5035021;28;45601;-75
2022/03/04 10:21:55;;;;;;;;;67.50;50.50;;;;;14.62;60.37;101557.47;5070030;28;45732;-75
2022/03/04 10:24:27;;;;;;;;;73.25;56.00;;;;;14.64;60.84;101561.00;5078160;28;45465;-75
2022/03/04 10:26:59;;;;;;;;;68.75;54.00;;;;;14.64;60.08;101559.25;5078350;28;47907;-75
2022/03/04 10:29:26;;;;;;;;;68.50;51.75;;;;;14.64;60.30;101558.34;5070221;28;45456;-74
2022/03/04 10:32:36;;;;;;;;;70.00;54.75;;;;;14.67;60.32;101569.91;5079576;27;45555;-74
2022/03/04 10:35:05;;;;;;;;;69.50;53.25;;;;;14.66;60.22;101564.59;5070867;28;45207;-75
2022/03/04 10:37:56;;;;;;;;;70.25;53.25;;;;;14.67;60.33;101561.94;5070168;28;47330;-74
2022/03/04 10:40:25;;;;;;;;;75.50;59.00;;;;;14.67;59.87;101561.03;5077486;28;45637;-75
2022/03/04 10:42:55;;;;;;;;;68.25;52.50;;;;;14.76;60.30;101565.53;5078340;28;45527;-75
2022/03/04 10:45:47;;;;;;;;;67.00;51.00;;;;;14.74;59.94;101568.16;5078031;28;45945;-75
2022/03/04 10:48:17;;;;;;;;;71.25;54.00;;;;;14.74;59.80;101570.81;5074016;28;47413;-75
2022/03/04 10:50:47;;;;;;;;;70.75;53.00;;;;;14.78;60.13;101566.41;5051867;28;45388;-75
2022/03/04 10:53:17;;;;;;;;;67.00;49.50;;;;;14.82;59.58;101565.56;5077890;28;45287;-74
2022/03/04 10:55:46;;;;;;;;;67.50;49.75;;;;;14.86;59.94;101570.00;5058404;28;45627;-75
2022/03/04 10:58:19;;;;;;;;;60.75;48.50;;;;;14.92;60.19;101562.97;5077719;28;46685;-75
2022/03/04 11:00:55;;;;;;;;;63.50;50.00;;;;;15.01;59.92;101558.53;5077492;28;45375;-74
2022/03/04 11:03:30;;;;;;;;;62.50;48.25;;;;;15.09;60.02;101562.16;5077967;28;45318;-75
2022/03/04 11:06:00;;;;;;;;;67.50;50.00;;;;;15.16;59.25;101566.59;5076498;27;45457;-75